createdAt,value
2023-05-05T00:00:02.511Z,87.0713
2023-05-05T00:01:03.332Z,87.0617
2023-05-05T00:02:04.914Z,87.4911
2023-05-05T00:03:06.764Z,87.6103
2023-05-05T00:04:08.218Z,87.4797
2023-05-05T00:05:09.886Z,87.1966
2023-05-05T00:06:11.593Z,87.2689
2023-05-05T00:07:13.147Z,87.3088
2023-05-05T00:08:14.794Z,87.2271
2023-05-05T00:09:16.424Z,87.3229
2023-05-05T00:10:18.090Z,87.1661
2023-05-05T00:11:19.760Z,87.0689
2023-05-05T00:12:21.331Z,87.2527
2023-05-05T00:13:23.048Z,87.1611
2023-05-05T00:14:24.659Z,87.5278
2023-05-05T00:15:26.307Z,87.3545
2023-05-05T00:16:28.081Z,87.2935
2023-05-05T00:17:29.610Z,87.1940
2023-05-05T00:18:31.276Z,87.1381
2023-05-05T00:19:32.893Z,87.2329
2023-05-05T00:20:34.583Z,87.3424
2023-05-05T00:21:36.244Z,87.1878
2023-05-05T00:22:37.862Z,87.1940
2023-05-05T00:23:39.472Z,87.1143
2023-05-05T00:24:41.217Z,87.0616
2023-05-05T00:25:42.754Z,87.4008
2023-05-05T00:26:44.490Z,87.3107
2023-05-05T00:27:46.152Z,87.1644
2023-05-05T00:28:47.770Z,87.3367
2023-05-05T00:29:49.331Z,87.2939
2023-05-05T00:30:51.070Z,87.5673
2023-05-05T00:31:52.665Z,87.6420
2023-05-05T00:32:54.467Z,87.3387
2023-05-05T00:33:55.908Z,87.2506
2023-05-05T00:34:57.673Z,87.2222
2023-05-05T00:35:59.281Z,87.2056
2023-05-05T00:37:00.929Z,86.9963
2023-05-05T00:38:02.482Z,86.9948
2023-05-05T00:39:04.207Z,86.9939
2023-05-05T00:40:05.897Z,87.0733
2023-05-05T00:41:07.485Z,87.3259
2023-05-05T00:42:10.493Z,87.2341
2023-05-05T00:43:10.692Z,87.1769
2023-05-05T00:44:12.394Z,87.1182
2023-05-05T00:45:15.004Z,87.1024
2023-05-05T00:46:15.704Z,87.1598
2023-05-05T00:47:17.389Z,87.3332
2023-05-05T00:48:19.078Z,87.3266
2023-05-05T00:49:20.666Z,86.9466
2023-05-05T00:50:22.255Z,87.1488
2023-05-05T00:51:23.991Z,87.1303
2023-05-05T00:52:25.601Z,87.1348
2023-05-05T00:53:27.226Z,87.0555
2023-05-05T00:54:28.824Z,86.6584
2023-05-05T00:55:30.504Z,86.7312
2023-05-05T00:56:32.121Z,86.9643
2023-05-05T00:57:33.830Z,87.0474
2023-05-05T00:58:35.355Z,87.0176
2023-05-05T00:59:37.082Z,86.8642
2023-05-05T01:00:38.679Z,86.5558
2023-05-05T01:01:41.491Z,86.4504
2023-05-05T01:02:42.458Z,86.7163
2023-05-05T01:03:43.845Z,87.0740
2023-05-05T01:04:46.139Z,87.0939
2023-05-05T01:05:46.883Z,86.9777
2023-05-05T01:06:48.494Z,86.9859
2023-05-05T01:07:50.130Z,86.7251
2023-05-05T01:08:51.794Z,86.4645
2023-05-05T01:10:04.201Z,86.5437
2023-05-05T01:10:55.089Z,86.8484
2023-05-05T01:11:56.780Z,86.9009
2023-05-05T01:12:58.436Z,87.2370
2023-05-05T01:13:59.967Z,86.9574
2023-05-05T01:15:01.639Z,86.8835
2023-05-05T01:16:03.337Z,86.5196
2023-05-05T01:17:04.951Z,86.4466
2023-05-05T01:18:06.764Z,86.4084
2023-05-05T01:19:08.200Z,86.6736
2023-05-05T01:20:10.013Z,86.9544
2023-05-05T01:21:11.495Z,86.8195
2023-05-05T01:22:13.129Z,86.8914
2023-05-05T01:23:14.786Z,86.9684
2023-05-05T01:24:16.386Z,86.6375
2023-05-05T01:25:18.073Z,86.3919
2023-05-05T01:26:19.691Z,86.2970
2023-05-05T01:27:21.367Z,86.4409
2023-05-05T01:28:23.021Z,86.6919
2023-05-05T01:29:24.643Z,86.9233
2023-05-05T01:30:26.257Z,86.7364
2023-05-05T01:31:28.032Z,86.7428
2023-05-05T01:32:29.635Z,86.5077
2023-05-05T01:33:31.556Z,86.3639
2023-05-05T01:34:32.892Z,86.2376
2023-05-05T01:35:34.515Z,86.6580
2023-05-05T01:36:36.150Z,86.7003
2023-05-05T01:37:37.868Z,86.8952
2023-05-05T01:38:39.498Z,86.8197
2023-05-05T01:39:41.107Z,86.5638
2023-05-05T01:40:42.766Z,86.2294
2023-05-05T01:41:44.439Z,86.1887
2023-05-05T01:42:46.063Z,86.1482
2023-05-05T01:43:47.739Z,85.9011
2023-05-05T01:44:49.241Z,85.8761
2023-05-05T01:45:50.980Z,86.5037
2023-05-05T01:46:52.560Z,86.4409
2023-05-05T01:47:54.273Z,86.4974
2023-05-05T01:48:55.836Z,86.2194
2023-05-05T01:49:57.605Z,86.1880
2023-05-05T01:50:59.158Z,86.2475
2023-05-05T01:52:00.870Z,86.4947
2023-05-05T01:53:02.473Z,86.6564
2023-05-05T01:54:04.958Z,86.6339
2023-05-05T01:55:05.800Z,86.4750
2023-05-05T01:56:07.365Z,86.3581
2023-05-05T01:57:09.010Z,86.1068
2023-05-05T01:58:10.781Z,86.1963
2023-05-05T01:59:12.334Z,86.5638
2023-05-05T02:00:13.997Z,86.0919
2023-05-05T02:01:15.604Z,86.1322
2023-05-05T02:02:17.266Z,86.2126
2023-05-05T02:03:18.969Z,86.4160
2023-05-05T02:04:20.665Z,86.4926
2023-05-05T02:05:22.198Z,86.1059
2023-05-05T02:06:23.820Z,85.9173
2023-05-05T02:07:25.429Z,85.8918
2023-05-05T02:08:27.185Z,86.0598
2023-05-05T02:09:28.754Z,86.3889
2023-05-05T02:10:30.415Z,86.2556
2023-05-05T02:11:32.004Z,86.4354
2023-05-05T02:12:33.719Z,86.2910
2023-05-05T02:13:35.368Z,85.9658
2023-05-05T02:14:36.997Z,85.9185
2023-05-05T02:15:38.678Z,85.6350
2023-05-05T02:16:40.284Z,85.4309
2023-05-05T02:17:41.939Z,85.5539
2023-05-05T02:18:43.565Z,86.0229
2023-05-05T02:19:45.250Z,86.1030
2023-05-05T02:20:46.860Z,86.3179
2023-05-05T02:21:48.561Z,85.8130
2023-05-05T02:22:50.131Z,85.6587
2023-05-05T02:23:51.922Z,85.6346
2023-05-05T02:24:53.467Z,85.3855
2023-05-05T02:25:55.018Z,85.2858
2023-05-05T02:26:56.816Z,85.8961
2023-05-05T02:27:58.319Z,85.8802
2023-05-05T02:29:00.031Z,86.1388
2023-05-05T02:30:01.654Z,85.6780
2023-05-05T02:31:03.294Z,85.5363
2023-05-05T02:32:04.986Z,85.4242
2023-05-05T02:33:06.715Z,85.4019
2023-05-05T02:34:08.226Z,85.2924
2023-05-05T02:35:09.896Z,85.7801
2023-05-05T02:36:11.536Z,86.1722
2023-05-05T02:37:13.214Z,86.0021
2023-05-05T02:38:14.783Z,85.6551
2023-05-05T02:39:16.426Z,85.5499
2023-05-05T02:40:18.082Z,85.3545
2023-05-05T02:41:19.690Z,85.4410
2023-05-05T02:42:21.923Z,85.4788
2023-05-05T02:43:23.124Z,85.8925
2023-05-05T02:44:24.626Z,85.8280
2023-05-05T02:45:26.855Z,85.6760
2023-05-05T02:46:27.963Z,85.3375
2023-05-05T02:47:29.628Z,85.2093
2023-05-05T02:48:31.148Z,85.1463
2023-05-05T02:49:32.885Z,85.1045
2023-05-05T02:50:34.498Z,85.6619
2023-05-05T02:51:36.232Z,85.7072
2023-05-05T02:52:37.824Z,85.7211
2023-05-05T02:53:39.443Z,85.7448
2023-05-05T02:54:41.436Z,85.4040
2023-05-05T02:55:42.753Z,85.1413
2023-05-05T02:56:44.359Z,84.9757
2023-05-05T02:57:46.001Z,84.8296
2023-05-05T02:58:47.620Z,84.8731
2023-05-05T02:59:49.339Z,85.1435
2023-05-05T03:00:50.953Z,85.1519
2023-05-05T03:01:52.736Z,85.3326
2023-05-05T03:02:54.339Z,85.4457
2023-05-05T03:03:55.976Z,85.1794
2023-05-05T03:04:57.556Z,85.0408
2023-05-05T03:05:59.208Z,84.9062
2023-05-05T03:07:00.767Z,84.8182
2023-05-05T03:08:02.533Z,84.6979
2023-05-05T03:09:04.171Z,84.7906
2023-05-05T03:10:06.203Z,84.9148
2023-05-05T03:11:07.386Z,85.1381
2023-05-05T03:12:09.096Z,85.1289
2023-05-05T03:13:10.858Z,84.8405
2023-05-05T03:14:12.369Z,84.7325
2023-05-05T03:15:14.071Z,84.5957
2023-05-05T03:16:15.780Z,84.4309
2023-05-05T03:17:17.310Z,84.4385
2023-05-05T03:18:18.988Z,84.6716
2023-05-05T03:19:20.617Z,84.8865
2023-05-05T03:20:22.302Z,85.1061
2023-05-05T03:21:23.963Z,85.1577
2023-05-05T03:22:25.536Z,84.8780
2023-05-05T03:23:27.175Z,84.6466
2023-05-05T03:24:28.850Z,84.5390
2023-05-05T03:25:30.557Z,84.4326
2023-05-05T03:26:32.487Z,84.2960
2023-05-05T03:27:33.796Z,84.5176
2023-05-05T03:28:35.363Z,84.5337
2023-05-05T03:29:37.096Z,85.2342
2023-05-05T03:30:38.781Z,85.0203
2023-05-05T03:31:41.102Z,84.9196
2023-05-05T03:32:42.082Z,84.6040
2023-05-05T03:33:43.649Z,84.4539
2023-05-05T03:34:45.245Z,84.3503
2023-05-05T03:35:46.976Z,84.2952
2023-05-05T03:36:48.582Z,84.3458
2023-05-05T03:37:50.971Z,84.9119
2023-05-05T03:38:51.816Z,85.0206
2023-05-05T03:39:53.605Z,84.8562
2023-05-05T03:40:55.195Z,84.7059
2023-05-05T03:41:56.853Z,84.5187
2023-05-05T03:42:58.434Z,84.4276
2023-05-05T03:44:00.185Z,84.3650
2023-05-05T03:45:01.733Z,84.3217
2023-05-05T03:46:03.469Z,84.6179
2023-05-05T03:47:06.000Z,85.0534
2023-05-05T03:48:06.752Z,85.1185
2023-05-05T03:49:08.311Z,85.0910
2023-05-05T03:50:10.170Z,84.6789
2023-05-05T03:51:11.636Z,84.4239
2023-05-05T03:52:15.093Z,84.2898
2023-05-05T03:53:14.976Z,84.0054
2023-05-05T03:54:16.552Z,83.7832
2023-05-05T03:55:18.186Z,84.3135
2023-05-05T03:56:19.873Z,84.5251
2023-05-05T03:57:21.468Z,84.5682
2023-05-05T03:58:24.011Z,84.5259
2023-05-05T03:59:24.741Z,84.2519
2023-05-05T04:00:26.464Z,84.1476
2023-05-05T04:01:28.859Z,84.1445
2023-05-05T04:02:29.855Z,83.8932
2023-05-05T04:03:31.651Z,84.8943
2023-05-05T04:04:33.154Z,85.0836
2023-05-05T04:05:34.653Z,84.7994
2023-05-05T04:06:36.293Z,84.7120
2023-05-05T04:07:37.927Z,84.4176
2023-05-05T04:08:40.068Z,84.1665
2023-05-05T04:09:41.959Z,84.1023
2023-05-05T04:10:42.907Z,83.8724
2023-05-05T04:11:44.545Z,84.4919
2023-05-05T04:12:46.356Z,84.7271
2023-05-05T04:13:47.871Z,84.5637
2023-05-05T04:14:49.537Z,84.4998
2023-05-05T04:15:51.104Z,84.2833
2023-05-05T04:16:52.716Z,84.1052
2023-05-05T04:17:55.142Z,83.8258
2023-05-05T04:18:56.061Z,83.7718
2023-05-05T04:19:57.720Z,84.2623
2023-05-05T04:20:59.306Z,84.6795
2023-05-05T04:22:00.971Z,84.5777
2023-05-05T04:23:02.643Z,84.4237
2023-05-05T04:24:04.278Z,84.0784
2023-05-05T04:25:05.964Z,83.9804
2023-05-05T04:26:07.514Z,83.4155
2023-05-05T04:27:09.192Z,83.6495
2023-05-05T04:28:10.852Z,84.3542
2023-05-05T04:29:12.523Z,84.3548
2023-05-05T04:30:14.143Z,84.3377
2023-05-05T04:31:15.753Z,84.2266
2023-05-05T04:32:17.296Z,84.0244
2023-05-05T04:33:19.018Z,83.6615
2023-05-05T04:34:20.640Z,83.5900
2023-05-05T04:35:22.300Z,84.0771
2023-05-05T04:36:23.936Z,84.3096
2023-05-05T04:37:25.520Z,84.2095
2023-05-05T04:38:27.301Z,84.0476
2023-05-05T04:39:29.535Z,84.1687
2023-05-05T04:40:30.481Z,83.8075
2023-05-05T04:41:32.049Z,83.2552
2023-05-05T04:42:33.701Z,83.8088
2023-05-05T04:43:35.400Z,84.5257
2023-05-05T04:44:37.474Z,84.4087
2023-05-05T04:45:38.705Z,84.1393
2023-05-05T04:46:40.326Z,84.2604
2023-05-05T04:47:42.045Z,84.4190
2023-05-05T04:48:43.590Z,83.3236
2023-05-05T04:49:45.476Z,83.4563
2023-05-05T04:50:46.971Z,83.9800
2023-05-05T04:51:48.547Z,84.3872
2023-05-05T04:52:51.392Z,84.1452
2023-05-05T04:53:53.091Z,83.9073
2023-05-05T04:54:53.632Z,84.3259
2023-05-05T04:55:55.286Z,83.4221
2023-05-05T04:56:56.918Z,82.9875
2023-05-05T04:57:58.584Z,83.6581
2023-05-05T04:59:00.206Z,84.1825
2023-05-05T05:00:01.893Z,84.4224
2023-05-05T05:01:03.525Z,84.2569
2023-05-05T05:02:05.246Z,84.0348
2023-05-05T05:03:06.854Z,83.7641
2023-05-05T05:04:08.422Z,83.0760
2023-05-05T05:05:10.094Z,83.4888
2023-05-05T05:06:11.723Z,84.3035
2023-05-05T05:07:13.336Z,84.4372
2023-05-05T05:08:15.087Z,84.3867
2023-05-05T05:09:16.575Z,84.1809
2023-05-05T05:10:18.342Z,84.0480
2023-05-05T05:11:19.974Z,83.0649
2023-05-05T05:12:21.563Z,83.0894
2023-05-05T05:13:23.269Z,83.7582
2023-05-05T05:14:24.898Z,84.6160
2023-05-05T05:15:26.463Z,85.0024
2023-05-05T05:16:28.351Z,85.0848
2023-05-05T05:17:29.858Z,84.9362
2023-05-05T05:18:31.521Z,84.2904
2023-05-05T05:19:34.069Z,83.2565
2023-05-05T05:20:35.092Z,83.6550
2023-05-05T05:21:36.425Z,84.2345
2023-05-05T05:22:38.009Z,84.8305
2023-05-05T05:23:39.658Z,84.7080
2023-05-05T05:24:41.363Z,84.6977
2023-05-05T05:25:43.897Z,84.5294
2023-05-05T05:26:44.690Z,83.4851
2023-05-05T05:27:50.136Z,83.2862
2023-05-05T05:28:47.856Z,83.7979
2023-05-05T05:29:49.558Z,84.2160
2023-05-05T05:30:51.228Z,84.5468
2023-05-05T05:31:52.803Z,84.8350
2023-05-05T05:32:54.544Z,84.9383
2023-05-05T05:33:56.191Z,83.7997
2023-05-05T05:34:57.678Z,82.9671
2023-05-05T05:35:59.470Z,83.1944
2023-05-05T05:37:01.076Z,83.7044
2023-05-05T05:38:02.700Z,84.1535
2023-05-05T05:39:04.256Z,84.5518
2023-05-05T05:40:06.032Z,84.5237
2023-05-05T05:41:07.535Z,83.7799
2023-05-05T05:42:10.507Z,83.2180
2023-05-05T05:43:10.923Z,83.5536
2023-05-05T05:44:12.522Z,84.0073
2023-05-05T05:45:14.094Z,84.3981
2023-05-05T05:46:15.886Z,84.5403
2023-05-05T05:47:17.500Z,84.3604
2023-05-05T05:48:20.104Z,83.0652
2023-05-05T05:49:20.598Z,82.7532
2023-05-05T05:50:22.673Z,83.3980
2023-05-05T05:51:24.267Z,84.0199
2023-05-05T05:52:25.978Z,84.3479
2023-05-05T05:53:28.665Z,84.3837
2023-05-05T05:54:29.666Z,83.5567
2023-05-05T05:55:30.492Z,82.5855
2023-05-05T05:56:32.215Z,82.5121
2023-05-05T05:57:34.167Z,83.1338
2023-05-05T05:58:35.413Z,83.8946
2023-05-05T05:59:37.121Z,83.8717
2023-05-05T06:00:38.950Z,83.3919
2023-05-05T06:01:40.445Z,82.6229
2023-05-05T06:02:42.296Z,82.7979
2023-05-05T06:03:43.712Z,83.0892
2023-05-05T06:04:45.285Z,83.1766
2023-05-05T06:05:46.886Z,83.0436
2023-05-05T06:06:48.675Z,83.0639
2023-05-05T06:07:50.229Z,83.1404
2023-05-05T06:08:51.877Z,83.0742
2023-05-05T06:09:53.503Z,82.0685
2023-05-05T06:10:55.272Z,82.3959
2023-05-05T06:11:56.831Z,82.7679
2023-05-05T06:12:58.578Z,82.7508
2023-05-05T06:14:00.071Z,82.9853
2023-05-05T06:15:01.727Z,82.9056
2023-05-05T06:16:03.395Z,82.7841
2023-05-05T06:17:05.085Z,82.8968
2023-05-05T06:18:06.702Z,82.3133
2023-05-05T06:19:08.349Z,82.1325
2023-05-05T06:20:10.058Z,82.0653
2023-05-05T06:21:11.630Z,81.4798
2023-05-05T06:22:13.348Z,81.2052
2023-05-05T06:23:14.886Z,81.0791
2023-05-05T06:24:16.474Z,80.7915
2023-05-05T06:25:18.180Z,80.1352
2023-05-05T06:26:19.818Z,80.8298
2023-05-05T06:27:21.446Z,80.5523
2023-05-05T06:28:23.612Z,80.2719
2023-05-05T06:29:24.694Z,79.9624
2023-05-05T06:30:26.413Z,79.9180
2023-05-05T06:31:27.996Z,80.2387
2023-05-05T06:32:30.164Z,80.0012
2023-05-05T06:33:31.328Z,78.1693
2023-05-05T06:34:32.970Z,78.0471
2023-05-05T06:35:34.596Z,79.5266
2023-05-05T06:36:36.306Z,79.7080
2023-05-05T06:37:37.868Z,79.7867
2023-05-05T06:38:39.571Z,79.3162
2023-05-05T06:39:41.135Z,78.9173
2023-05-05T06:40:42.841Z,78.1469
2023-05-05T06:41:44.478Z,76.3089
2023-05-05T06:42:46.160Z,76.4800
2023-05-05T06:43:48.097Z,77.9010
2023-05-05T06:44:49.469Z,78.3518
2023-05-05T06:45:50.950Z,78.8574
2023-05-05T06:46:52.731Z,79.3783
2023-05-05T06:47:54.295Z,78.8226
2023-05-05T06:48:56.118Z,76.1503
2023-05-05T06:49:57.502Z,75.0668
2023-05-05T06:50:59.201Z,75.9060
2023-05-05T06:52:00.799Z,76.8075
2023-05-05T06:53:02.481Z,77.1630
2023-05-05T06:54:04.152Z,77.5536
2023-05-05T06:55:05.742Z,77.4207
2023-05-05T06:56:07.405Z,74.3279
2023-05-05T06:57:09.054Z,72.6901
2023-05-05T06:58:11.600Z,72.2101
2023-05-05T06:59:12.308Z,72.0872
2023-05-05T07:00:13.898Z,71.9991
2023-05-05T07:01:15.720Z,71.2980
2023-05-05T07:02:17.211Z,69.9415
2023-05-05T07:03:18.914Z,66.4977
2023-05-05T07:04:20.561Z,65.0793
2023-05-05T07:05:22.244Z,64.7971
2023-05-05T07:06:23.765Z,64.9608
2023-05-05T07:07:25.451Z,63.9347
2023-05-05T07:08:27.066Z,63.1209
2023-05-05T07:09:28.743Z,61.7575
2023-05-05T07:10:30.356Z,61.4657
2023-05-05T07:11:31.956Z,62.7531
2023-05-05T07:12:33.668Z,64.3728
2023-05-05T07:13:35.249Z,65.1751
2023-05-05T07:14:37.019Z,64.6441
2023-05-05T07:15:38.684Z,64.0846
2023-05-05T07:16:40.337Z,65.3840
2023-05-05T07:17:41.879Z,66.9580
2023-05-05T07:18:43.586Z,67.1955
2023-05-05T07:19:45.248Z,66.2643
2023-05-05T07:20:46.965Z,64.2170
2023-05-05T07:21:48.437Z,63.5228
2023-05-05T07:22:50.107Z,64.2659
2023-05-05T07:23:52.091Z,64.7609
2023-05-05T07:24:53.462Z,63.9826
2023-05-05T07:25:54.998Z,61.7291
2023-05-05T07:26:56.644Z,61.0792
2023-05-05T07:27:58.272Z,62.6688
2023-05-05T07:29:00.008Z,64.4856
2023-05-05T07:30:02.073Z,65.4364
2023-05-05T07:31:03.263Z,64.7610
2023-05-05T07:32:04.921Z,65.3755
2023-05-05T07:33:06.554Z,67.0065
2023-05-05T07:34:08.519Z,69.1000
2023-05-05T07:35:09.789Z,69.6131
2023-05-05T07:36:11.519Z,67.6187
2023-05-05T07:37:13.104Z,66.9056
2023-05-05T07:38:15.602Z,67.9050
2023-05-05T07:39:17.127Z,68.5483
2023-05-05T07:40:18.095Z,68.1481
2023-05-05T07:41:19.651Z,68.0297
2023-05-05T07:42:21.422Z,67.5484
2023-05-05T07:43:23.015Z,67.9298
2023-05-05T07:44:24.658Z,68.9811
2023-05-05T07:45:26.268Z,68.9326
2023-05-05T07:46:28.016Z,68.2401
2023-05-05T07:47:29.587Z,68.5201
2023-05-05T07:48:31.193Z,69.6540
2023-05-05T07:49:32.811Z,70.7501
2023-05-05T07:50:34.505Z,69.3366
2023-05-05T07:51:36.051Z,68.5838
2023-05-05T07:52:45.313Z,68.7234
2023-05-05T07:53:39.304Z,70.1151
2023-05-05T07:54:40.960Z,71.2751
2023-05-05T07:55:43.033Z,70.6062
2023-05-05T07:56:44.569Z,69.1999
2023-05-05T07:57:45.963Z,68.9580
2023-05-05T07:58:48.488Z,69.7296
2023-05-05T07:59:49.226Z,70.4812
2023-05-05T08:00:50.999Z,70.4779
2023-05-05T08:01:54.791Z,69.6205
2023-05-05T08:02:54.322Z,68.8822
2023-05-05T08:03:55.995Z,68.9425
2023-05-05T08:04:57.596Z,70.3183
2023-05-05T08:05:59.305Z,70.1928
2023-05-05T08:07:00.877Z,69.3253
2023-05-05T08:08:02.567Z,68.8795
2023-05-05T08:09:04.159Z,69.0863
2023-05-05T08:10:05.832Z,69.9344
2023-05-05T08:11:07.479Z,70.1225
2023-05-05T08:12:09.896Z,69.0549
2023-05-05T08:13:10.632Z,68.2454
2023-05-05T08:14:12.278Z,68.0765
2023-05-05T08:15:13.924Z,68.4238
2023-05-05T08:16:15.583Z,67.5781
2023-05-05T08:17:18.144Z,65.1479
2023-05-05T08:18:18.861Z,63.3598
2023-05-05T08:19:28.600Z,63.3786
2023-05-05T08:20:22.148Z,63.7694
2023-05-05T08:21:23.793Z,62.4096
2023-05-05T08:22:25.421Z,61.2237
2023-05-05T08:23:27.048Z,60.6668
2023-05-05T08:24:28.640Z,61.3906
2023-05-05T08:25:30.283Z,61.5974
2023-05-05T08:26:31.933Z,60.6606
2023-05-05T08:27:33.625Z,60.2683
2023-05-05T08:28:35.307Z,60.6234
2023-05-05T08:29:36.827Z,61.3782
2023-05-05T08:30:38.434Z,61.0470
2023-05-05T08:31:40.320Z,60.3615
2023-05-05T08:32:41.871Z,60.3260
2023-05-05T08:33:43.450Z,61.4540
2023-05-05T08:34:45.014Z,62.5754
2023-05-05T08:35:46.706Z,62.1966
2023-05-05T08:36:48.360Z,62.1262
2023-05-05T08:37:49.964Z,62.5154
2023-05-05T08:38:51.593Z,64.0036
2023-05-05T08:39:53.202Z,64.7768
2023-05-05T08:40:54.953Z,64.1848
2023-05-05T08:41:56.590Z,63.2537
2023-05-05T08:42:58.230Z,62.7629
2023-05-05T08:43:59.779Z,63.5436
2023-05-05T08:45:01.425Z,62.6893
2023-05-05T08:46:03.163Z,61.3521
2023-05-05T08:47:04.864Z,60.6524
2023-05-05T08:48:06.460Z,60.6335
2023-05-05T08:49:08.087Z,61.4035
2023-05-05T08:50:09.681Z,60.8563
2023-05-05T08:51:11.256Z,60.1558
2023-05-05T08:52:13.024Z,59.9013
2023-05-05T08:53:14.600Z,60.0026
2023-05-05T08:54:16.222Z,60.1925
2023-05-05T08:55:17.942Z,59.9142
2023-05-05T08:56:19.467Z,59.5304
2023-05-05T08:57:21.185Z,59.6627
2023-05-05T08:58:23.015Z,60.1584
2023-05-05T08:59:24.403Z,60.2688
2023-05-05T09:00:26.095Z,59.9892
2023-05-05T09:01:27.710Z,60.1129
2023-05-05T09:02:29.474Z,60.6375
2023-05-05T09:03:31.065Z,60.4833
2023-05-05T09:04:32.656Z,60.4835
2023-05-05T09:05:34.253Z,60.7762
2023-05-05T09:06:35.924Z,61.7306
2023-05-05T09:07:37.554Z,61.8835
2023-05-05T09:08:39.233Z,61.9092
2023-05-05T09:09:40.818Z,62.2679
2023-05-05T09:10:42.495Z,63.0598
2023-05-05T09:11:44.147Z,63.4547
2023-05-05T09:12:45.818Z,63.3079
2023-05-05T09:13:48.001Z,63.2181
2023-05-05T09:14:49.109Z,63.5719
2023-05-05T09:15:50.685Z,64.3791
2023-05-05T09:16:52.265Z,64.2363
2023-05-05T09:17:53.982Z,63.8008
2023-05-05T09:18:55.673Z,63.6999
2023-05-05T09:19:57.361Z,64.0548
2023-05-05T09:20:59.573Z,64.7913
2023-05-05T09:22:00.550Z,64.7625
2023-05-05T09:23:02.204Z,64.5845
2023-05-05T09:24:08.216Z,64.9191
2023-05-05T09:25:05.682Z,65.0157
2023-05-05T09:26:07.072Z,64.8098
2023-05-05T09:27:08.785Z,64.6245
2023-05-05T09:28:10.428Z,64.7594
2023-05-05T09:29:12.079Z,65.0157
2023-05-05T09:30:13.719Z,64.8187
2023-05-05T09:31:15.445Z,64.7974
2023-05-05T09:32:16.992Z,65.1000
2023-05-05T09:33:18.623Z,65.4881
2023-05-05T09:34:20.342Z,65.3378
2023-05-05T09:35:22.039Z,65.0689
2023-05-05T09:36:24.233Z,65.5533
2023-05-05T09:37:25.216Z,66.1473
2023-05-05T09:38:26.789Z,65.6296
2023-05-05T09:39:28.548Z,65.2951
2023-05-05T09:40:30.138Z,65.4580
2023-05-05T09:41:31.731Z,66.1157
2023-05-05T09:42:33.407Z,65.9892
2023-05-05T09:43:35.096Z,65.4187
2023-05-05T09:44:36.736Z,65.1987
2023-05-05T09:45:38.722Z,65.6244
2023-05-05T09:46:40.049Z,66.1843
2023-05-05T09:47:41.612Z,65.5567
2023-05-05T09:48:43.271Z,65.0201
2023-05-05T09:49:45.688Z,65.2662
2023-05-05T09:50:46.667Z,66.0076
2023-05-05T09:51:49.010Z,65.6423
2023-05-05T09:52:49.807Z,65.0939
2023-05-05T09:53:51.537Z,65.0006
2023-05-05T09:54:53.117Z,65.8117
2023-05-05T09:55:54.835Z,66.1780
2023-05-05T09:56:56.585Z,65.3773
2023-05-05T09:57:58.084Z,64.9824
2023-05-05T09:58:59.678Z,65.2002
2023-05-05T10:00:01.366Z,65.4975
2023-05-05T10:01:03.036Z,65.2684
2023-05-05T10:02:04.709Z,64.8604
2023-05-05T10:03:06.330Z,64.8966
2023-05-05T10:04:07.881Z,65.5082
2023-05-05T10:05:09.551Z,65.2873
2023-05-05T10:06:11.241Z,64.8859
2023-05-05T10:07:12.808Z,65.0169
2023-05-05T10:08:14.454Z,65.5364
2023-05-05T10:09:16.127Z,65.3111
2023-05-05T10:10:17.786Z,65.0747
2023-05-05T10:11:19.393Z,65.0420
2023-05-05T10:12:20.974Z,65.1324
2023-05-05T10:13:22.741Z,65.3589
2023-05-05T10:14:24.260Z,65.2940
2023-05-05T10:15:25.989Z,65.0252
2023-05-05T10:16:29.077Z,65.1081
2023-05-05T10:17:29.352Z,65.7671
2023-05-05T10:18:30.883Z,65.4995
2023-05-05T10:19:32.507Z,64.9625
2023-05-05T10:20:34.260Z,64.8776
2023-05-05T10:21:36.297Z,65.5459
2023-05-05T10:22:37.497Z,65.7644
2023-05-05T10:23:39.090Z,65.0915
2023-05-05T10:24:40.696Z,64.8107
2023-05-05T10:25:42.375Z,65.2482
2023-05-05T10:26:44.089Z,65.6180
2023-05-05T10:27:45.659Z,65.0779
2023-05-05T10:28:47.251Z,64.7126
2023-05-05T10:29:48.949Z,64.7570
2023-05-05T10:30:50.604Z,65.1236
2023-05-05T10:31:54.380Z,64.8738
2023-05-05T10:33:04.034Z,64.5953
2023-05-05T10:33:55.730Z,64.6687
2023-05-05T10:34:57.163Z,65.3663
2023-05-05T10:35:58.874Z,65.1455
2023-05-05T10:37:00.376Z,64.7436
2023-05-05T10:38:02.178Z,64.7999
2023-05-05T10:39:03.612Z,65.2944
2023-05-05T10:40:05.464Z,65.4843
2023-05-05T10:41:06.958Z,64.9632
2023-05-05T10:42:08.622Z,64.5898
2023-05-05T10:43:10.263Z,64.8568
2023-05-05T10:44:11.842Z,65.0168
2023-05-05T10:45:13.484Z,64.4293
2023-05-05T10:46:15.215Z,64.0275
2023-05-05T10:47:16.818Z,64.1606
2023-05-05T10:48:18.441Z,64.1393
2023-05-05T10:49:20.068Z,63.5961
2023-05-05T10:50:21.703Z,63.1115
2023-05-05T10:51:38.640Z,63.4538
2023-05-05T10:52:25.109Z,63.8812
2023-05-05T10:53:26.642Z,63.5675
2023-05-05T10:54:28.345Z,63.2558
2023-05-05T10:55:29.912Z,63.3466
2023-05-05T10:56:31.656Z,64.1334
2023-05-05T10:57:33.704Z,64.1305
2023-05-05T10:58:43.685Z,63.8005
2023-05-05T10:59:36.528Z,63.6249
2023-05-05T11:00:38.240Z,64.0677
2023-05-05T11:01:39.863Z,64.0388
2023-05-05T11:02:41.712Z,63.4325
2023-05-05T11:03:43.040Z,63.1177
2023-05-05T11:04:44.670Z,63.2771
2023-05-05T11:05:46.354Z,62.7842
2023-05-05T11:06:48.041Z,62.3817
2023-05-05T11:07:50.194Z,62.3201
2023-05-05T11:08:51.247Z,62.7978
2023-05-05T11:09:52.927Z,62.5555
2023-05-05T11:10:55.116Z,62.4234
2023-05-05T11:11:56.315Z,62.6576
2023-05-05T11:12:57.999Z,63.1379
2023-05-05T11:13:59.544Z,63.2314
2023-05-05T11:15:01.138Z,62.9499
2023-05-05T11:16:02.749Z,62.8447
2023-05-05T11:17:04.468Z,63.1267
2023-05-05T11:18:07.845Z,63.6971
2023-05-05T11:19:07.762Z,63.5266
2023-05-05T11:20:09.650Z,63.3216
2023-05-05T11:21:11.062Z,63.1101
2023-05-05T11:22:13.245Z,63.3844
2023-05-05T11:23:16.607Z,63.5526
2023-05-05T11:24:16.665Z,63.0575
2023-05-05T11:25:17.617Z,62.7974
2023-05-05T11:26:19.212Z,63.0750
2023-05-05T11:27:20.952Z,63.2557
2023-05-05T11:28:22.546Z,63.0072
2023-05-05T11:29:24.182Z,62.7602
2023-05-05T11:30:25.795Z,63.0426
2023-05-05T11:31:27.521Z,63.0415
2023-05-05T11:32:29.156Z,62.7811
2023-05-05T11:33:30.857Z,62.9065
2023-05-05T11:34:32.383Z,63.2187
2023-05-05T11:35:34.107Z,63.1639
2023-05-05T11:36:35.621Z,62.9253
2023-05-05T11:37:37.725Z,62.4039
2023-05-05T11:38:39.028Z,62.4158
2023-05-05T11:39:40.639Z,62.4948
2023-05-05T11:40:42.206Z,62.1137
2023-05-05T11:41:43.866Z,62.0265
2023-05-05T11:42:45.691Z,62.2540
2023-05-05T11:43:47.196Z,62.2959
2023-05-05T11:44:48.782Z,62.0536
2023-05-05T11:45:50.438Z,62.1530
2023-05-05T11:46:52.052Z,62.6482
2023-05-05T11:47:53.780Z,63.0514
2023-05-05T11:48:55.665Z,62.9382
2023-05-05T11:49:57.081Z,63.0812
2023-05-05T11:50:58.631Z,63.3215
2023-05-05T11:52:00.297Z,63.5783
2023-05-05T11:53:02.021Z,63.5114
2023-05-05T11:54:03.700Z,63.4771
2023-05-05T11:55:05.350Z,63.4930
2023-05-05T11:56:07.013Z,63.3510
2023-05-05T11:57:08.655Z,62.9758
2023-05-05T11:58:10.393Z,62.7836
2023-05-05T11:59:11.946Z,62.5810
2023-05-05T12:00:13.564Z,62.4022
2023-05-05T12:01:15.212Z,62.3933
2023-05-05T12:02:16.968Z,62.2925
2023-05-05T12:03:18.577Z,62.1743
2023-05-05T12:04:20.211Z,62.1321
2023-05-05T12:05:21.905Z,62.5527
2023-05-05T12:06:23.374Z,63.9074
2023-05-05T12:07:25.150Z,63.9647
2023-05-05T12:08:26.698Z,63.6887
2023-05-05T12:09:28.345Z,63.5869
2023-05-05T12:10:29.971Z,63.2602
2023-05-05T12:11:31.656Z,63.2803
2023-05-05T12:12:34.082Z,63.6992
2023-05-05T12:13:35.777Z,63.4592
2023-05-05T12:14:36.563Z,63.1485
2023-05-05T12:15:38.222Z,63.0472
2023-05-05T12:16:40.002Z,63.9687
2023-05-05T12:17:41.469Z,64.1158
2023-05-05T12:18:43.397Z,63.8398
2023-05-05T12:19:44.865Z,63.7660
2023-05-05T12:20:46.457Z,64.8085
2023-05-05T12:21:48.074Z,64.7320
2023-05-05T12:22:49.674Z,64.1320
2023-05-05T12:23:51.299Z,64.1174
2023-05-05T12:24:54.927Z,64.7036